createdAt,value
2022-12-03T00:00:18.309Z,26.63
2022-12-03T00:02:44.944Z,27.90
2022-12-03T00:05:11.562Z,27.13
2022-12-03T00:07:38.307Z,27.53
2022-12-03T00:10:06.098Z,28.23
2022-12-03T00:12:32.614Z,26.80
2022-12-03T00:14:59.019Z,25.70
2022-12-03T00:17:25.445Z,28.60
2022-12-03T00:19:51.880Z,25.70
2022-12-03T00:22:18.226Z,25.57
2022-12-03T00:24:44.601Z,25.53
2022-12-03T00:27:13.364Z,25.73
2022-12-03T00:29:39.883Z,24.03
2022-12-03T00:32:06.419Z,24.93
2022-12-03T00:34:32.875Z,25.17
2022-12-03T00:36:59.266Z,27.10
2022-12-03T00:39:25.740Z,24.27
2022-12-03T00:41:53.145Z,24.33
2022-12-03T00:44:19.496Z,25.40
2022-12-03T00:46:52.067Z,26.27
2022-12-03T00:49:18.616Z,28.80
2022-12-03T00:51:45.154Z,23.17
2022-12-03T00:54:11.777Z,27.87
2022-12-03T00:56:38.312Z,25.73
2022-12-03T00:59:07.152Z,28.23
2022-12-03T01:01:33.706Z,28.43
2022-12-03T01:04:00.302Z,27.80
2022-12-03T01:06:26.812Z,27.40
2022-12-03T01:08:56.251Z,23.63
2022-12-03T01:11:37.748Z,24.80
2022-12-03T01:14:09.715Z,24.37
2022-12-03T01:16:36.775Z,30.45
2022-12-03T01:19:04.695Z,24.47
2022-12-03T01:21:31.450Z,26.83
2022-12-03T01:23:58.015Z,22.33
2022-12-03T01:26:25.544Z,27.13
2022-12-03T01:28:56.583Z,28.87
2022-12-03T01:31:44.534Z,26.70
2022-12-03T01:34:11.050Z,27.43
2022-12-03T01:36:38.147Z,27.53
2022-12-03T01:39:04.971Z,26.33
2022-12-03T01:41:33.196Z,28.67
2022-12-03T01:44:00.033Z,27.50
2022-12-03T01:46:39.431Z,26.23
2022-12-03T01:49:06.988Z,28.53
2022-12-03T01:51:33.480Z,30.23
2022-12-03T01:54:01.315Z,26.13
2022-12-03T01:56:28.213Z,31.07
2022-12-03T01:58:54.620Z,27.60
2022-12-03T02:01:21.107Z,23.23
2022-12-03T02:03:47.714Z,22.93
2022-12-03T02:06:17.466Z,27.23
2022-12-03T02:08:44.228Z,23.40
2022-12-03T02:11:18.675Z,26.00
2022-12-03T02:13:46.266Z,25.93
2022-12-03T02:16:12.787Z,25.10
2022-12-03T02:18:40.626Z,24.60
2022-12-03T02:21:23.764Z,25.93
2022-12-03T02:24:03.975Z,25.77
2022-12-03T02:26:30.412Z,24.13
2022-12-03T02:28:57.229Z,23.73
2022-12-03T02:31:24.251Z,22.80
2022-12-03T02:33:51.070Z,27.30
2022-12-03T02:36:17.481Z,27.60
2022-12-03T02:38:46.069Z,27.30
2022-12-03T02:41:37.486Z,28.50
2022-12-03T02:44:06.776Z,24.63
2022-12-03T02:46:34.217Z,24.80
2022-12-03T02:49:01.864Z,22.67
2022-12-03T02:51:28.347Z,25.60
2022-12-03T02:53:56.705Z,27.63
2022-12-03T02:56:29.540Z,26.87
2022-12-03T02:59:00.309Z,26.47
2022-12-03T03:01:26.888Z,23.43
2022-12-03T03:03:53.987Z,27.30
2022-12-03T03:06:21.185Z,24.60
2022-12-03T03:08:48.622Z,23.63
2022-12-03T03:11:15.064Z,23.60
2022-12-03T03:13:41.724Z,24.27
2022-12-03T03:16:09.084Z,25.47
2022-12-03T03:18:36.500Z,28.20
2022-12-03T03:21:04.399Z,24.33
2022-12-03T03:23:30.857Z,25.07
2022-12-03T03:26:08.480Z,22.13
2022-12-03T03:28:38.385Z,24.30
2022-12-03T03:31:07.968Z,26.83
2022-12-03T03:33:35.558Z,23.83
2022-12-03T03:36:02.403Z,25.07
2022-12-03T03:38:29.953Z,27.87
2022-12-03T03:40:57.927Z,25.17
2022-12-03T03:43:25.063Z,24.67
2022-12-03T03:45:53.789Z,25.30
2022-12-03T03:48:21.950Z,26.57
2022-12-03T03:50:49.352Z,22.80
2022-12-03T03:53:17.486Z,26.30
2022-12-03T03:55:44.254Z,25.97
2022-12-03T03:58:11.100Z,26.37
2022-12-03T04:00:37.655Z,25.13
2022-12-03T04:03:04.674Z,26.57
2022-12-03T04:05:31.619Z,28.60
2022-12-03T04:07:59.265Z,28.87
2022-12-03T04:10:44.573Z,27.40
2022-12-03T04:13:11.038Z,26.97
2022-12-03T04:15:37.424Z,28.07
2022-12-03T04:18:22.626Z,27.77
2022-12-03T04:20:49.052Z,31.63
2022-12-03T04:23:15.442Z,27.10
2022-12-03T04:26:00.830Z,30.40
2022-12-03T04:28:45.763Z,30.67
2022-12-03T04:31:30.528Z,27.77
2022-12-03T04:34:15.376Z,31.57
2022-12-03T04:36:41.778Z,24.40
2022-12-03T04:39:08.160Z,27.07
2022-12-03T04:41:34.571Z,27.93
2022-12-03T04:44:19.772Z,30.70
2022-12-03T04:46:46.146Z,27.63
2022-12-03T04:49:12.844Z,30.03
2022-12-03T04:51:39.276Z,27.50
2022-12-03T04:54:05.712Z,29.77
2022-12-03T04:56:34.438Z,26.23
2022-12-03T04:59:00.855Z,30.87
2022-12-03T05:01:27.367Z,29.47
2022-12-03T05:03:53.818Z,26.83
2022-12-03T05:06:20.384Z,29.57
2022-12-03T05:08:46.799Z,27.70
2022-12-03T05:11:13.282Z,26.97
2022-12-03T05:13:39.693Z,28.40
2022-12-03T05:16:06.454Z,28.93
2022-12-03T05:18:32.904Z,26.10
2022-12-03T05:20:59.306Z,26.37
2022-12-03T05:23:25.789Z,27.57
2022-12-03T05:25:52.323Z,36.07
2022-12-03T05:28:20.294Z,30.23
2022-12-03T05:30:46.730Z,30.73
2022-12-03T05:33:13.169Z,29.90
2022-12-03T05:35:43.014Z,27.47
2022-12-03T05:38:09.515Z,26.40
2022-12-03T05:40:35.974Z,29.60
2022-12-03T05:43:02.512Z,30.27
2022-12-03T05:45:33.213Z,33.37
2022-12-03T05:48:00.779Z,30.20
2022-12-03T05:50:30.322Z,28.30
2022-12-03T05:52:57.776Z,29.77
2022-12-03T05:55:25.203Z,31.13
2022-12-03T05:57:51.958Z,30.00
2022-12-03T06:00:21.934Z,28.47
2022-12-03T06:02:48.721Z,30.30
2022-12-03T06:05:16.103Z,31.37
2022-12-03T06:07:43.328Z,28.87
2022-12-03T06:10:15.168Z,30.87
2022-12-03T06:12:42.460Z,30.13
2022-12-03T06:15:12.147Z,26.27
2022-12-03T06:17:38.746Z,31.20
2022-12-03T06:20:06.350Z,31.00
2022-12-03T06:22:32.826Z,28.97
2022-12-03T06:25:03.573Z,30.47
2022-12-03T06:27:32.830Z,30.73
2022-12-03T06:29:59.269Z,31.23
2022-12-03T06:32:25.773Z,34.03
2022-12-03T06:34:52.359Z,30.53
2022-12-03T06:37:19.150Z,32.00
2022-12-03T06:39:45.634Z,30.53
2022-12-03T06:42:12.001Z,35.80
2022-12-03T06:44:38.359Z,32.13
2022-12-03T06:47:07.322Z,32.40
2022-12-03T06:49:33.712Z,34.03
2022-12-03T06:52:00.190Z,35.90
2022-12-03T06:54:26.937Z,36.23
2022-12-03T06:56:53.370Z,34.30
2022-12-03T06:59:19.852Z,32.33
2022-12-03T07:01:46.336Z,36.67
2022-12-03T07:04:12.970Z,32.40
2022-12-03T07:06:39.431Z,35.77
2022-12-03T07:09:05.839Z,34.17
2022-12-03T07:11:32.288Z,36.97
2022-12-03T07:14:05.511Z,34.13
2022-12-03T07:16:33.253Z,32.27
2022-12-03T07:18:59.867Z,35.40
2022-12-03T07:21:26.256Z,32.13
2022-12-03T07:23:58.709Z,32.93
2022-12-03T07:26:27.374Z,38.33
2022-12-03T07:28:53.900Z,35.57
2022-12-03T07:31:23.034Z,34.37
2022-12-03T07:33:49.502Z,37.37
2022-12-03T07:36:15.905Z,35.30
2022-12-03T07:38:42.411Z,35.53
2022-12-03T07:41:08.845Z,35.63
2022-12-03T07:43:37.947Z,30.63
2022-12-03T07:46:04.430Z,29.50
2022-12-03T07:48:30.935Z,34.10
2022-12-03T07:51:00.379Z,31.57
2022-12-03T07:53:26.900Z,34.67
2022-12-03T07:55:55.634Z,32.60
2022-12-03T07:58:25.030Z,30.70
2022-12-03T08:00:51.645Z,33.30
2022-12-03T08:03:18.082Z,32.17
2022-12-03T08:05:44.431Z,33.40
2022-12-03T08:08:10.831Z,29.33
2022-12-03T08:10:37.367Z,33.60
2022-12-03T08:13:10.575Z,31.07
2022-12-03T08:15:39.478Z,35.37
2022-12-03T08:18:32.932Z,30.97
2022-12-03T08:21:18.039Z,34.60
2022-12-03T08:23:44.536Z,34.00
2022-12-03T08:26:26.214Z,27.90
2022-12-03T08:28:53.084Z,31.40
2022-12-03T08:31:32.325Z,29.20
2022-12-03T08:34:13.101Z,29.80
2022-12-03T08:36:39.552Z,33.50
2022-12-03T08:39:23.410Z,32.37
2022-12-03T08:42:15.043Z,32.50
2022-12-03T08:44:41.445Z,30.47
2022-12-03T08:47:13.767Z,27.43
2022-12-03T08:52:15.161Z,30.93
2022-12-03T08:54:42.996Z,28.60
2022-12-03T08:57:30.279Z,31.20
2022-12-03T09:00:21.568Z,28.07
2022-12-03T09:02:51.054Z,25.50
2022-12-03T09:05:30.067Z,28.10
2022-12-03T09:07:56.728Z,30.83
2022-12-03T09:10:23.085Z,28.57
2022-12-03T09:12:49.727Z,28.80
2022-12-03T09:15:16.581Z,28.03
2022-12-03T09:17:45.587Z,28.60
2022-12-03T09:20:12.260Z,31.50
2022-12-03T09:22:38.617Z,28.77
2022-12-03T09:25:05.823Z,25.83
2022-12-03T09:27:32.186Z,30.27
2022-12-03T09:30:01.584Z,29.03
2022-12-03T09:32:28.206Z,29.30
2022-12-03T09:34:54.906Z,28.60
2022-12-03T09:37:22.243Z,27.63
2022-12-03T09:39:48.582Z,29.47
2022-12-03T09:42:19.234Z,31.13
2022-12-03T09:44:45.897Z,36.70
2022-12-03T09:47:16.270Z,34.37
2022-12-03T09:49:43.080Z,32.93
2022-12-03T09:52:16.501Z,36.53
2022-12-03T09:54:47.277Z,39.27
2022-12-03T09:57:14.225Z,42.83
2022-12-03T09:59:40.740Z,39.07
2022-12-03T10:02:20.888Z,47.73
2022-12-03T10:04:48.229Z,41.23
2022-12-03T10:07:14.803Z,39.93
2022-12-03T10:09:41.687Z,41.73
2022-12-03T10:12:12.159Z,44.60
2022-12-03T10:14:39.149Z,45.33
2022-12-03T10:17:05.731Z,45.07
2022-12-03T10:19:35.506Z,38.73
2022-12-03T10:22:02.010Z,41.57
2022-12-03T10:24:34.300Z,47.87
2022-12-03T10:29:35.097Z,40.10
2022-12-03T10:32:10.016Z,47.27
2022-12-03T10:34:38.697Z,45.40
2022-12-03T10:37:20.519Z,41.00
2022-12-03T10:40:13.246Z,47.75
2022-12-03T10:45:26.739Z,51.27
2022-12-03T10:48:17.159Z,42.50
2022-12-03T10:50:55.401Z,45.33
2022-12-03T10:53:24.341Z,49.03
2022-12-03T10:55:52.556Z,44.70
2022-12-03T10:58:22.598Z,45.33
2022-12-03T11:00:51.267Z,43.47
2022-12-03T11:03:23.718Z,44.70
2022-12-03T11:05:51.430Z,44.87
2022-12-03T11:08:21.044Z,41.53
2022-12-03T11:11:08.405Z,43.07
2022-12-03T11:13:34.765Z,39.40
2022-12-03T11:16:03.830Z,42.07
2022-12-03T11:18:37.336Z,48.20
2022-12-03T11:21:06.590Z,49.30
2022-12-03T11:23:44.865Z,41.20
2022-12-03T11:26:26.933Z,42.20
2022-12-03T11:28:55.856Z,36.10
2022-12-03T11:31:40.105Z,41.30
2022-12-03T11:34:18.604Z,40.30
2022-12-03T11:37:10.036Z,48.63
2022-12-03T11:39:52.188Z,46.67
2022-12-03T11:45:03.672Z,49.27
2022-12-03T11:47:34.451Z,48.03
2022-12-03T11:50:01.118Z,50.23
2022-12-03T11:52:30.996Z,40.53
2022-12-03T11:55:05.367Z,47.07
2022-12-03T11:57:35.451Z,46.77
2022-12-03T12:00:22.768Z,38.57
2022-12-03T12:02:53.783Z,45.50
2022-12-03T12:05:32.444Z,47.60
2022-12-03T12:08:01.198Z,45.23
2022-12-03T12:11:02.424Z,46.63
2022-12-03T12:13:31.607Z,43.27
2022-12-03T12:16:06.910Z,43.17
2022-12-03T12:18:41.492Z,49.93
2022-12-03T12:21:39.756Z,43.30
2022-12-03T12:24:41.770Z,50.40
2022-12-03T12:27:10.423Z,46.40
2022-12-03T12:29:39.116Z,41.77
2022-12-03T12:32:17.232Z,45.60
2022-12-03T12:34:53.360Z,41.87
2022-12-03T12:37:33.815Z,45.70
2022-12-03T12:40:06.045Z,50.07
2022-12-03T12:42:37.548Z,45.35
2022-12-03T12:45:26.381Z,56.63
2022-12-03T12:48:18.441Z,46.20
2022-12-03T12:50:47.700Z,41.35
2022-12-03T12:53:23.406Z,48.30
2022-12-03T12:56:14.049Z,43.10
2022-12-03T12:58:40.925Z,49.13
2022-12-03T13:01:16.812Z,45.50
2022-12-03T13:03:43.607Z,49.70
2022-12-03T13:06:17.944Z,51.30
2022-12-03T13:08:47.985Z,44.37
2022-12-03T13:11:35.949Z,47.10
2022-12-03T13:14:19.258Z,49.00
2022-12-03T13:16:48.159Z,47.63
2022-12-03T13:19:21.518Z,52.07
2022-12-03T13:21:50.964Z,41.30
2022-12-03T13:24:29.320Z,51.53
2022-12-03T13:26:58.272Z,47.00
2022-12-03T13:29:26.806Z,48.60
2022-12-03T13:31:59.217Z,44.27
2022-12-03T13:34:28.591Z,42.67
2022-12-03T13:36:58.378Z,52.30
2022-12-03T13:39:32.170Z,45.50
2022-12-03T13:42:39.093Z,54.27
2022-12-03T13:45:14.918Z,46.60
2022-12-03T13:47:44.674Z,43.50
2022-12-03T13:50:21.641Z,41.33
2022-12-03T13:52:48.483Z,48.27
2022-12-03T13:55:24.547Z,46.60
2022-12-03T13:57:51.039Z,35.23
2022-12-03T14:00:17.833Z,38.33
2022-12-03T14:02:44.295Z,38.47
2022-12-03T14:05:11.058Z,37.13
2022-12-03T14:07:38.522Z,33.60
2022-12-03T14:10:07.073Z,34.73
2022-12-03T14:12:33.967Z,32.23
2022-12-03T14:15:01.858Z,37.73
2022-12-03T14:17:28.682Z,36.13
2022-12-03T14:20:00.521Z,35.70
2022-12-03T14:22:27.313Z,30.33
2022-12-03T14:24:54.257Z,32.73
2022-12-03T14:27:21.304Z,32.73
2022-12-03T14:29:47.804Z,37.57
2022-12-03T14:32:14.151Z,33.10
2022-12-03T14:34:40.676Z,28.90
2022-12-03T14:37:09.644Z,37.53
2022-12-03T14:39:37.053Z,27.27
2022-12-03T14:42:13.096Z,29.83
2022-12-03T14:44:45.356Z,32.83
2022-12-03T14:47:13.099Z,31.08
2022-12-03T14:49:39.749Z,30.97
2022-12-03T14:52:09.872Z,27.67
2022-12-03T14:57:11.662Z,35.80
2022-12-03T14:59:39.161Z,30.00
2022-12-03T15:02:05.681Z,33.87
2022-12-03T15:04:32.132Z,35.10
2022-12-03T15:06:58.612Z,35.97
2022-12-03T15:09:25.069Z,33.10
2022-12-03T15:11:51.588Z,36.03
2022-12-03T15:14:18.152Z,36.73
2022-12-03T15:16:44.776Z,31.43
2022-12-03T15:19:13.608Z,35.93
2022-12-03T15:21:40.092Z,35.90
2022-12-03T15:24:06.887Z,35.07
2022-12-03T15:26:33.269Z,36.63
2022-12-03T15:28:59.661Z,37.80
2022-12-03T15:31:26.065Z,35.40
2022-12-03T15:33:52.456Z,36.53
2022-12-03T15:36:18.842Z,34.53
2022-12-03T15:38:45.243Z,38.63
2022-12-03T15:41:28.802Z,38.47
2022-12-03T15:43:57.462Z,33.80
2022-12-03T15:46:24.552Z,34.30
2022-12-03T15:48:50.983Z,39.33
2022-12-03T15:51:17.594Z,36.20
2022-12-03T15:53:44.013Z,45.37
2022-12-03T15:56:11.964Z,37.23
2022-12-03T15:58:41.048Z,36.20
2022-12-03T16:01:09.240Z,40.77
2022-12-03T16:03:36.480Z,38.70
2022-12-03T16:06:02.874Z,37.27
2022-12-03T16:08:29.338Z,39.57
2022-12-03T16:10:55.860Z,43.30
2022-12-03T16:13:22.409Z,38.33
2022-12-03T16:15:51.786Z,36.10
2022-12-03T16:18:18.193Z,39.73
2022-12-03T16:20:44.597Z,39.57
2022-12-03T16:23:10.921Z,37.80
2022-12-03T16:25:37.361Z,41.70
2022-12-03T16:28:03.949Z,38.47
2022-12-03T16:30:30.462Z,39.37
2022-12-03T16:32:57.092Z,41.67
2022-12-03T16:35:23.604Z,38.33
2022-12-03T16:37:50.014Z,39.27
2022-12-03T16:40:16.511Z,44.13
2022-12-03T16:42:42.948Z,39.70
2022-12-03T16:45:09.778Z,39.90
2022-12-03T16:47:37.533Z,41.13
2022-12-03T16:50:07.565Z,34.43
2022-12-03T16:52:34.878Z,35.43
2022-12-03T16:55:01.689Z,41.13
2022-12-03T16:57:33.424Z,38.87
2022-12-03T17:00:00.564Z,39.13
2022-12-03T17:02:27.466Z,39.80
2022-12-03T17:04:54.132Z,33.53
2022-12-03T17:07:20.688Z,38.53
2022-12-03T17:09:47.113Z,35.97
2022-12-03T17:12:13.516Z,35.87
2022-12-03T17:14:39.925Z,37.23
2022-12-03T17:17:06.526Z,34.10
2022-12-03T17:19:32.974Z,45.77
2022-12-03T17:21:59.841Z,42.40
2022-12-03T17:24:26.270Z,41.53
2022-12-03T17:26:52.603Z,35.87
2022-12-03T17:29:19.010Z,36.83
2022-12-03T17:31:45.447Z,40.00
2022-12-03T17:34:12.012Z,41.73
2022-12-03T17:36:38.411Z,43.17
2022-12-03T17:39:04.743Z,36.70
2022-12-03T17:41:31.117Z,37.47
2022-12-03T17:43:57.505Z,37.67
2022-12-03T17:46:28.708Z,41.73
2022-12-03T17:48:55.111Z,35.20
2022-12-03T17:51:21.490Z,37.67
2022-12-03T17:53:47.957Z,41.20
2022-12-03T17:56:14.343Z,45.10
2022-12-03T17:58:40.759Z,44.67
2022-12-03T18:01:09.346Z,37.60
2022-12-03T18:03:36.513Z,41.83
2022-12-03T18:06:03.759Z,42.87
2022-12-03T18:08:30.426Z,44.07
2022-12-03T18:10:56.948Z,41.93
2022-12-03T18:13:23.407Z,39.33
2022-12-03T18:15:49.843Z,41.33
2022-12-03T18:18:16.564Z,44.27
2022-12-03T18:20:44.816Z,43.03
2022-12-03T18:23:12.083Z,44.80
2022-12-03T18:25:38.522Z,45.97
2022-12-03T18:28:06.224Z,37.10
2022-12-03T18:30:32.713Z,44.67
2022-12-03T18:32:59.253Z,36.03
2022-12-03T18:35:25.795Z,48.87
2022-12-03T18:37:52.266Z,45.30
2022-12-03T18:40:23.854Z,39.23
2022-12-03T18:42:50.590Z,44.47
2022-12-03T18:45:21.502Z,45.47
2022-12-03T18:47:47.997Z,43.90
2022-12-03T18:50:14.648Z,44.13
2022-12-03T18:52:41.086Z,47.60
2022-12-03T18:55:08.141Z,41.10
2022-12-03T18:57:34.469Z,45.33
2022-12-03T19:00:00.874Z,32.77
2022-12-03T19:02:54.338Z,35.37
2022-12-03T19:05:13.951Z,42.03
2022-12-03T19:07:40.382Z,40.87
2022-12-03T19:10:07.525Z,40.50
2022-12-03T19:12:33.957Z,42.57
2022-12-03T19:15:00.407Z,42.00
2022-12-03T19:17:27.480Z,46.40
2022-12-03T19:19:56.104Z,47.90
2022-12-03T19:22:23.608Z,36.07
2022-12-03T19:24:50.394Z,43.33
2022-12-03T19:27:16.766Z,38.33
2022-12-03T19:29:43.171Z,40.07
2022-12-03T19:32:09.611Z,40.27
2022-12-03T19:34:36.265Z,43.60
2022-12-03T19:37:02.691Z,40.93
2022-12-03T19:39:29.126Z,45.57
2022-12-03T19:41:57.407Z,48.50
2022-12-03T19:44:23.827Z,43.43
2022-12-03T19:46:50.394Z,41.53
2022-12-03T19:49:18.548Z,42.43
2022-12-03T19:51:45.240Z,52.23
2022-12-03T19:54:12.310Z,43.90
2022-12-03T19:56:38.735Z,47.27
2022-12-03T19:59:05.423Z,40.37
2022-12-03T20:01:34.658Z,45.87
2022-12-03T20:04:07.247Z,49.83
2022-12-03T20:06:37.411Z,47.23
2022-12-03T20:09:11.394Z,39.13
2022-12-03T20:11:39.091Z,44.20
2022-12-03T20:14:08.668Z,45.03
2022-12-03T20:16:35.765Z,43.90
2022-12-03T20:19:05.679Z,49.03
2022-12-03T20:21:34.354Z,48.00
2022-12-03T20:24:01.351Z,44.07
2022-12-03T20:26:28.437Z,45.07
2022-12-03T20:28:56.791Z,47.67
2022-12-03T20:31:28.432Z,44.13
2022-12-03T20:33:58.532Z,42.33
2022-12-03T20:36:31.824Z,43.07
2022-12-03T20:39:08.644Z,40.80
2022-12-03T20:41:45.429Z,37.40
2022-12-03T20:44:26.405Z,46.03
2022-12-03T20:46:52.825Z,46.03
2022-12-03T20:49:19.188Z,48.57
2022-12-03T20:51:45.630Z,43.17
2022-12-03T20:54:12.064Z,45.87
2022-12-03T20:56:39.464Z,45.90
2022-12-03T20:59:14.320Z,44.90
2022-12-03T21:01:42.058Z,50.33
2022-12-03T21:04:10.702Z,38.40
2022-12-03T21:06:37.744Z,48.10
2022-12-03T21:09:06.417Z,42.37
2022-12-03T21:11:35.667Z,40.07
2022-12-03T21:14:03.256Z,44.73
2022-12-03T21:19:22.548Z,41.47
2022-12-03T21:21:51.999Z,39.30
2022-12-03T21:24:18.449Z,46.67
2022-12-03T21:26:44.988Z,39.90
2022-12-03T21:29:12.938Z,37.97
2022-12-03T21:31:40.006Z,42.97
2022-12-03T21:34:08.315Z,46.13
2022-12-03T21:36:34.701Z,43.37
2022-12-03T21:39:01.142Z,42.23
2022-12-03T21:41:27.610Z,38.63
2022-12-03T21:43:54.067Z,40.27
2022-12-03T21:47:12.049Z,41.27
2022-12-03T21:49:07.097Z,38.43
2022-12-03T21:51:33.529Z,43.93
2022-12-03T21:53:59.949Z,38.27
2022-12-03T21:56:26.394Z,40.63
2022-12-03T21:58:52.803Z,37.23
2022-12-03T22:01:24.715Z,48.20
2022-12-03T22:03:51.646Z,42.15
2022-12-03T22:06:20.934Z,45.30
2022-12-03T22:08:47.779Z,42.10
2022-12-03T22:11:20.051Z,42.83
2022-12-03T22:13:47.146Z,47.28
2022-12-03T22:16:17.147Z,41.23
2022-12-03T22:18:44.483Z,43.43
2022-12-03T22:21:17.401Z,42.87
2022-12-03T22:23:46.463Z,40.47
2022-12-03T22:26:15.062Z,46.90
2022-12-03T22:28:46.105Z,43.77
2022-12-03T22:31:13.624Z,45.43
2022-12-03T22:33:40.423Z,38.67
2022-12-03T22:36:14.677Z,45.60
2022-12-03T22:38:45.171Z,41.10
2022-12-03T22:41:12.987Z,38.10
2022-12-03T22:43:39.718Z,39.20
2022-12-03T22:46:07.384Z,46.13
2022-12-03T22:48:34.825Z,38.27
2022-12-03T22:51:01.354Z,47.67
2022-12-03T22:53:27.726Z,40.27
2022-12-03T22:55:56.058Z,42.63
2022-12-03T22:58:22.945Z,43.80
2022-12-03T23:00:49.504Z,42.27
2022-12-03T23:03:16.004Z,47.57
2022-12-03T23:05:42.397Z,40.87
2022-12-03T23:08:14.793Z,49.33
2022-12-03T23:10:47.494Z,48.67
2022-12-03T23:13:14.956Z,45.43
2022-12-03T23:15:49.562Z,45.47
2022-12-03T23:18:16.894Z,43.77
2022-12-03T23:20:48.953Z,44.30
2022-12-03T23:23:15.695Z,41.15
2022-12-03T23:25:42.275Z,45.73
2022-12-03T23:28:09.910Z,45.83
2022-12-03T23:30:37.817Z,47.27
2022-12-03T23:33:05.725Z,44.60
2022-12-03T23:35:33.198Z,47.93
2022-12-03T23:37:59.664Z,42.47
2022-12-03T23:40:28.555Z,49.30
2022-12-03T23:42:55.074Z,49.87
2022-12-03T23:45:21.607Z,38.53
2022-12-03T23:47:48.039Z,43.50
2022-12-03T23:50:14.633Z,39.23
2022-12-03T23:52:43.680Z,43.43
2022-12-03T23:55:10.511Z,41.50
2022-12-03T23:57:37.041Z,47.97
